createdAt,value
2023-03-08T00:01:22.311Z,97482.94
2023-03-08T00:03:52.864Z,97488.00
2023-03-08T00:06:19.386Z,97483.75
2023-03-08T00:08:48.348Z,97472.47
2023-03-08T00:11:15.425Z,97470.47
2023-03-08T00:13:42.076Z,97490.44
2023-03-08T00:16:11.453Z,97502.00
2023-03-08T00:18:38.026Z,97492.56
2023-03-08T00:21:09.994Z,97468.22
2023-03-08T00:23:36.667Z,97500.34
2023-03-08T00:26:03.854Z,97506.13
2023-03-08T00:28:30.863Z,97494.41
2023-03-08T00:30:58.739Z,97492.56
2023-03-08T00:33:25.781Z,97506.28
2023-03-08T00:36:04.106Z,97504.75
2023-03-08T00:38:32.551Z,97528.34
2023-03-08T00:40:59.725Z,97533.34
2023-03-08T00:43:27.033Z,97540.97
2023-03-08T00:45:53.710Z,97530.91
2023-03-08T00:48:20.585Z,97542.19
2023-03-08T00:50:47.433Z,97532.44
2023-03-08T00:53:14.387Z,97525.28
2023-03-08T00:55:49.169Z,97532.75
2023-03-08T00:58:15.811Z,97522.38
2023-03-08T01:00:42.547Z,97518.41
2023-03-08T01:03:09.184Z,97515.03
2023-03-08T01:05:43.643Z,97538.22
2023-03-08T01:08:10.770Z,97531.19
2023-03-08T01:10:37.484Z,97498.16
2023-03-08T01:13:05.785Z,97521.47
2023-03-08T01:15:37.166Z,97527.81
2023-03-08T01:18:04.640Z,97503.47
2023-03-08T01:20:31.617Z,97533.03
2023-03-08T01:22:58.543Z,97499.81
2023-03-08T01:25:25.916Z,97526.63
2023-03-08T01:27:53.146Z,97515.97
2023-03-08T01:30:19.813Z,97525.72
2023-03-08T01:32:46.533Z,97516.44
2023-03-08T01:35:13.411Z,97522.38
2023-03-08T01:37:39.940Z,97528.13
2023-03-08T01:40:08.215Z,97531.19
2023-03-08T01:42:37.987Z,97524.81
2023-03-08T01:45:07.065Z,97515.38
2023-03-08T01:47:36.154Z,97504.44
2023-03-08T01:50:06.431Z,97515.53
2023-03-08T01:52:39.133Z,97476.88
2023-03-08T01:55:08.692Z,97480.84
2023-03-08T01:57:38.303Z,97522.09
2023-03-08T02:00:24.707Z,97514.63
2023-03-08T02:03:04.479Z,97502.31
2023-03-08T02:05:31.618Z,97501.25
2023-03-08T02:07:59.003Z,97506.25
2023-03-08T02:10:25.747Z,97501.09
2023-03-08T02:12:52.266Z,97477.94
2023-03-08T02:15:20.838Z,97499.25
2023-03-08T02:17:48.045Z,97509.63
2023-03-08T02:20:27.544Z,97505.03
2023-03-08T02:22:54.305Z,97496.19
2023-03-08T02:25:23.762Z,97511.44
2023-03-08T02:27:51.851Z,97470.31
2023-03-08T02:30:25.596Z,97494.06
2023-03-08T02:32:52.204Z,97479.63
2023-03-08T02:35:18.941Z,97501.41
2023-03-08T02:37:45.496Z,97482.03
2023-03-08T02:40:12.720Z,97501.53
2023-03-08T02:42:39.284Z,97475.50
2023-03-08T02:45:07.169Z,97495.63
2023-03-08T02:47:33.789Z,97488.44
2023-03-08T02:50:02.047Z,97479.03
2023-03-08T02:52:29.105Z,97490.72
2023-03-08T02:54:55.893Z,97468.22
2023-03-08T02:57:22.749Z,97475.50
2023-03-08T02:59:49.390Z,97481.28
2023-03-08T03:02:16.339Z,97463.63
2023-03-08T03:04:43.354Z,97473.06
2023-03-08T03:07:09.920Z,97473.38
2023-03-08T03:09:37.114Z,97471.56
2023-03-08T03:12:03.764Z,97473.06
2023-03-08T03:14:32.892Z,97475.38
2023-03-08T03:17:00.101Z,97467.59
2023-03-08T03:19:26.739Z,97479.94
2023-03-08T03:21:53.331Z,97471.25
2023-03-08T03:24:20.143Z,97473.22
2023-03-08T03:26:46.628Z,97460.88
2023-03-08T03:29:13.085Z,97479.47
2023-03-08T03:31:39.640Z,97477.47
2023-03-08T03:34:06.419Z,97489.53
2023-03-08T03:36:34.412Z,97470.47
2023-03-08T03:39:00.867Z,97478.25
2023-03-08T03:41:27.423Z,97471.84
2023-03-08T03:43:53.884Z,97442.03
2023-03-08T03:46:21.592Z,97452.38
2023-03-08T03:48:48.194Z,97456.19
2023-03-08T03:51:19.848Z,97479.63
2023-03-08T03:53:47.201Z,97476.28
2023-03-08T03:56:24.558Z,97446.28
2023-03-08T03:58:51.572Z,97482.22
2023-03-08T04:01:21.613Z,97481.31
2023-03-08T04:03:48.816Z,97437.44
2023-03-08T04:06:20.906Z,97471.41
2023-03-08T04:08:48.057Z,97476.75
2023-03-08T04:11:17.056Z,97477.78
2023-03-08T04:13:44.477Z,97472.78
2023-03-08T04:16:12.060Z,97494.69
2023-03-08T04:18:38.642Z,97490.72
2023-03-08T04:21:05.918Z,97482.19
2023-03-08T04:23:33.000Z,97497.44
2023-03-08T04:25:59.810Z,97507.63
2023-03-08T04:28:26.316Z,97464.84
2023-03-08T04:30:53.083Z,97484.94
2023-03-08T04:33:19.825Z,97472.63
2023-03-08T04:35:46.582Z,97478.53
2023-03-08T04:38:13.234Z,97481.13
2023-03-08T04:40:58.432Z,97479.28
2023-03-08T04:43:25.172Z,97463.59
2023-03-08T04:45:51.651Z,97462.72
2023-03-08T04:48:18.116Z,97473.38
2023-03-08T04:50:44.646Z,97485.84
2023-03-08T04:53:11.171Z,97489.50
2023-03-08T04:55:37.849Z,97470.00
2023-03-08T04:58:04.359Z,97471.84
2023-03-08T05:00:30.977Z,97474.59
2023-03-08T05:02:57.436Z,97470.94
2023-03-08T05:05:24.895Z,97450.56
2023-03-08T05:07:51.332Z,97450.09
2023-03-08T05:10:17.872Z,97454.19
2023-03-08T05:12:44.376Z,97442.94
2023-03-08T05:15:11.377Z,97449.94
2023-03-08T05:17:37.996Z,97452.22
2023-03-08T05:20:04.877Z,97441.22
2023-03-08T05:22:31.642Z,97417.06
2023-03-08T05:24:58.154Z,97452.22
2023-03-08T05:27:24.691Z,97451.59
2023-03-08T05:29:54.198Z,97447.78
2023-03-08T05:32:20.939Z,97441.09
2023-03-08T05:34:47.486Z,97447.63
2023-03-08T05:37:13.919Z,97407.59
2023-03-08T05:39:40.400Z,97448.09
2023-03-08T05:42:07.016Z,97432.56
2023-03-08T05:44:33.583Z,97398.78
2023-03-08T05:47:00.036Z,97434.25
2023-03-08T05:49:26.606Z,97429.53
2023-03-08T05:51:53.620Z,97419.94
2023-03-08T05:54:20.602Z,97423.91
2023-03-08T05:56:47.321Z,97444.44
2023-03-08T05:59:13.702Z,97442.91
2023-03-08T06:01:40.201Z,97446.56
2023-03-08T06:04:06.723Z,97409.09
2023-03-08T06:06:34.915Z,97416.44
2023-03-08T06:09:01.506Z,97450.06
2023-03-08T06:11:27.992Z,97445.03
2023-03-08T06:13:54.475Z,97451.13
2023-03-08T06:16:20.991Z,97447.50
2023-03-08T06:18:47.698Z,97449.00
2023-03-08T06:21:18.677Z,97440.03
2023-03-08T06:23:45.917Z,97449.91
2023-03-08T06:26:12.970Z,97430.56
2023-03-08T06:28:42.829Z,97436.69
2023-03-08T06:31:12.797Z,97443.69
2023-03-08T06:33:39.488Z,97439.88
2023-03-08T06:36:12.202Z,97449.03
2023-03-08T06:38:40.203Z,97444.44
2023-03-08T06:41:08.102Z,97430.16
2023-03-08T06:43:35.860Z,97424.81
2023-03-08T06:46:06.898Z,97421.03
2023-03-08T06:48:37.279Z,97421.78
2023-03-08T06:51:05.096Z,97419.66
2023-03-08T06:53:32.089Z,97419.50
2023-03-08T06:55:58.615Z,97416.91
2023-03-08T06:58:25.056Z,97414.94
2023-03-08T07:00:51.490Z,97402.16
2023-03-08T07:03:17.962Z,97429.25
2023-03-08T07:05:44.658Z,97409.75
2023-03-08T07:08:11.292Z,97413.84
2023-03-08T07:10:37.827Z,97391.34
2023-03-08T07:13:04.362Z,97387.97
2023-03-08T07:15:31.073Z,97401.06
2023-03-08T07:17:57.660Z,97409.00
2023-03-08T07:20:25.746Z,97416.44
2023-03-08T07:22:52.281Z,97403.78
2023-03-08T07:25:20.116Z,97389.63
2023-03-08T07:27:47.148Z,97401.78
2023-03-08T07:30:15.123Z,97403.63
2023-03-08T07:32:44.946Z,97399.19
2023-03-08T07:35:14.138Z,97398.72
2023-03-08T07:37:41.295Z,97368.47
2023-03-08T07:40:10.921Z,97394.31
2023-03-08T07:42:37.490Z,97372.25
2023-03-08T07:45:04.357Z,97374.84
2023-03-08T07:47:30.882Z,97393.56
2023-03-08T07:49:57.388Z,97356.16
2023-03-08T07:52:30.925Z,97378.66
2023-03-08T07:54:57.688Z,97380.78
2023-03-08T07:57:24.314Z,97375.44
2023-03-08T07:59:53.356Z,97365.72
2023-03-08T08:02:20.077Z,97376.38
2023-03-08T08:04:46.543Z,97366.19
2023-03-08T08:07:14.949Z,97369.22
2023-03-08T08:09:42.016Z,97373.03
2023-03-08T08:12:09.009Z,97348.19
2023-03-08T08:14:35.437Z,97327.88
2023-03-08T08:17:01.933Z,97357.50
2023-03-08T08:19:28.751Z,97360.53
2023-03-08T08:21:55.322Z,97355.06
2023-03-08T08:24:21.841Z,97359.78
2023-03-08T08:26:48.369Z,97357.03
2023-03-08T08:29:14.908Z,97348.97
2023-03-08T08:31:41.413Z,97327.38
2023-03-08T08:34:08.423Z,97312.00
2023-03-08T08:36:34.931Z,97348.19
2023-03-08T08:39:01.471Z,97314.13
2023-03-08T08:41:29.728Z,97326.28
2023-03-08T08:43:59.538Z,97307.84
2023-03-08T08:46:27.950Z,97286.28
2023-03-08T08:48:55.451Z,97322.34
2023-03-08T08:51:22.143Z,97316.88
2023-03-08T08:53:48.706Z,97299.16
2023-03-08T08:56:27.060Z,97306.19
2023-03-08T08:58:56.019Z,97298.88
2023-03-08T09:01:25.265Z,97280.06
2023-03-08T09:03:52.255Z,97297.97
2023-03-08T09:06:20.963Z,97291.09
2023-03-08T09:08:55.688Z,97292.75
2023-03-08T09:11:23.110Z,97285.94
2023-03-08T09:13:49.767Z,97265.13
2023-03-08T09:16:23.805Z,97272.00
2023-03-08T09:18:50.782Z,97286.72
2023-03-08T09:21:17.738Z,97290.66
2023-03-08T09:23:44.659Z,97272.84
2023-03-08T09:26:11.656Z,97254.44
2023-03-08T09:28:38.363Z,97254.13
2023-03-08T09:31:12.968Z,97255.78
2023-03-08T09:33:45.337Z,97253.22
2023-03-08T09:36:12.105Z,97272.56
2023-03-08T09:38:38.784Z,97263.28
2023-03-08T09:41:05.254Z,97245.94
2023-03-08T09:43:50.679Z,97241.28
2023-03-08T09:46:28.132Z,97218.91
2023-03-08T09:48:55.301Z,97210.84
2023-03-08T09:51:23.494Z,97217.25
2023-03-08T09:53:57.170Z,97207.94
2023-03-08T09:56:35.611Z,97200.03
2023-03-08T09:59:11.014Z,97206.41
2023-03-08T10:01:45.532Z,97206.69
2023-03-08T10:04:34.379Z,97203.78
2023-03-08T10:07:15.443Z,97187.22
2023-03-08T10:09:53.038Z,97190.88
2023-03-08T10:12:29.334Z,97176.88
2023-03-08T10:15:04.933Z,97168.00
2023-03-08T10:17:52.376Z,97128.81
2023-03-08T10:20:35.740Z,97148.97
2023-03-08T10:23:10.825Z,97136.31
2023-03-08T10:25:37.638Z,97136.31
2023-03-08T10:28:11.817Z,97130.34
2023-03-08T10:30:45.086Z,97120.47
2023-03-08T10:33:14.655Z,97118.00
2023-03-08T10:35:50.283Z,97127.56
2023-03-08T10:38:17.423Z,97115.97
2023-03-08T10:40:43.872Z,97117.31
2023-03-08T10:43:27.261Z,97106.69
2023-03-08T10:46:05.935Z,97100.25
2023-03-08T10:48:32.832Z,97106.34
2023-03-08T10:51:04.570Z,97103.41
2023-03-08T10:53:32.009Z,97093.97
2023-03-08T10:56:00.844Z,97086.38
2023-03-08T10:58:38.186Z,97096.19
2023-03-08T11:01:07.242Z,97089.75
2023-03-08T11:03:34.445Z,97089.75
2023-03-08T11:06:03.846Z,97083.78
2023-03-08T11:08:32.828Z,97067.03
2023-03-08T11:11:03.661Z,97065.38
2023-03-08T11:13:32.637Z,97059.88
2023-03-08T11:16:04.938Z,97066.88
2023-03-08T11:18:51.641Z,97063.22
2023-03-08T11:22:00.141Z,97068.03
2023-03-08T11:24:51.880Z,97062.16
2023-03-08T11:27:43.134Z,97056.03
2023-03-08T11:30:54.657Z,97062.41
2023-03-08T11:33:39.625Z,97054.25
2023-03-08T11:36:13.157Z,97039.88
2023-03-08T11:38:40.298Z,97046.97
2023-03-08T11:41:14.722Z,97056.16
2023-03-08T11:43:47.906Z,97053.41
2023-03-08T11:46:29.968Z,97024.34
2023-03-08T11:49:10.803Z,97055.00
2023-03-08T11:51:44.718Z,97033.72
2023-03-08T11:54:55.988Z,97052.56
2023-03-08T11:57:23.659Z,97050.84
2023-03-08T11:59:50.096Z,97046.78
2023-03-08T12:02:45.077Z,97043.28
2023-03-08T12:05:24.958Z,97025.84
2023-03-08T12:08:01.081Z,97038.19
2023-03-08T12:10:31.750Z,97034.97
2023-03-08T12:13:07.614Z,97034.78
2023-03-08T12:15:47.610Z,97026.06
2023-03-08T12:18:39.830Z,97013.19
2023-03-08T12:21:22.054Z,97018.84
2023-03-08T12:24:03.865Z,97014.13
2023-03-08T12:26:50.110Z,97008.56
2023-03-08T12:29:25.508Z,97000.13
2023-03-08T12:31:52.322Z,97007.00
2023-03-08T12:34:40.128Z,97006.56
2023-03-08T12:37:29.738Z,96998.09
2023-03-08T12:40:07.221Z,96980.31
2023-03-08T12:42:40.961Z,96979.44
2023-03-08T12:45:19.559Z,96975.06
2023-03-08T12:47:57.977Z,96977.09
2023-03-08T12:50:24.918Z,96974.34
2023-03-08T12:52:51.444Z,96967.13
2023-03-08T12:55:26.889Z,96944.03
2023-03-08T12:57:54.883Z,96945.63
2023-03-08T13:00:26.638Z,96940.91
2023-03-08T13:03:13.235Z,96952.03
2023-03-08T13:05:43.138Z,96956.56
2023-03-08T13:08:12.679Z,96950.09
2023-03-08T13:10:52.266Z,96951.16
2023-03-08T13:13:38.111Z,96940.94
2023-03-08T13:16:19.727Z,96950.38
2023-03-08T13:18:48.843Z,96943.94
2023-03-08T13:21:57.457Z,96947.44
2023-03-08T13:24:33.128Z,96946.66
2023-03-08T13:27:21.587Z,96948.69
2023-03-08T13:29:48.895Z,96940.34
2023-03-08T13:32:18.294Z,96935.63
2023-03-08T13:34:47.703Z,96945.72
2023-03-08T13:37:25.456Z,96922.50
2023-03-08T13:39:57.947Z,96932.69
2023-03-08T13:42:28.792Z,96903.59
2023-03-08T13:45:18.625Z,96933.22
2023-03-08T13:47:46.102Z,96933.78
2023-03-08T13:50:35.237Z,96935.47
2023-03-08T13:53:03.473Z,96912.91
2023-03-08T13:55:35.500Z,96921.00
2023-03-08T13:58:02.835Z,96920.25
2023-03-08T14:00:31.431Z,96907.03
2023-03-08T14:02:59.554Z,96909.53
2023-03-08T14:05:40.378Z,96909.31
2023-03-08T14:08:27.395Z,96927.03
2023-03-08T14:10:56.230Z,96926.75
2023-03-08T14:13:37.680Z,96922.72
2023-03-08T14:16:06.139Z,96914.94
2023-03-08T14:18:39.572Z,96918.94
2023-03-08T14:21:17.765Z,96913.44
2023-03-08T14:23:50.280Z,96913.44
2023-03-08T14:26:27.125Z,96905.66
2023-03-08T14:29:21.466Z,96906.44
2023-03-08T14:31:57.754Z,96890.56
2023-03-08T14:34:33.710Z,96894.91
2023-03-08T14:37:06.986Z,96876.78
2023-03-08T14:39:35.741Z,96872.31
2023-03-08T14:42:18.064Z,96825.28
2023-03-08T14:44:51.579Z,96893.19
2023-03-08T14:47:25.686Z,96885.97
2023-03-08T14:50:17.859Z,96879.53
2023-03-08T14:52:47.718Z,96882.28
2023-03-08T14:55:32.103Z,96868.19
2023-03-08T14:58:01.461Z,96881.78
2023-03-08T15:00:29.227Z,96863.66
2023-03-08T15:02:59.591Z,96859.22
2023-03-08T15:05:29.518Z,96865.31
2023-03-08T15:07:58.138Z,96877.50
2023-03-08T15:10:29.102Z,96885.03
2023-03-08T15:12:56.205Z,96878.47
2023-03-08T15:15:23.006Z,96868.47
2023-03-08T15:17:52.463Z,96867.22
2023-03-08T15:20:19.394Z,96860.00
2023-03-08T15:22:52.809Z,96867.28
2023-03-08T15:25:26.598Z,96854.59
2023-03-08T15:27:53.259Z,96855.31
2023-03-08T15:30:28.576Z,96856.03
2023-03-08T15:32:57.884Z,96852.59
2023-03-08T15:35:25.528Z,96825.91
2023-03-08T15:37:52.265Z,96828.72
2023-03-08T15:40:21.424Z,96847.28
2023-03-08T15:42:48.083Z,96843.84
2023-03-08T15:45:14.929Z,96850.41
2023-03-08T15:47:41.800Z,96841.94
2023-03-08T15:50:16.851Z,96853.47
2023-03-08T15:52:44.799Z,96841.47
2023-03-08T15:55:12.969Z,96835.47
2023-03-08T15:57:39.625Z,96825.75
2023-03-08T16:00:12.382Z,96830.19
2023-03-08T16:02:39.551Z,96824.47
2023-03-08T16:05:07.709Z,96816.72
2023-03-08T16:07:34.696Z,96816.94
2023-03-08T16:10:02.022Z,96809.66
2023-03-08T16:12:28.572Z,96797.31
2023-03-08T16:14:57.109Z,96818.66
2023-03-08T16:17:25.956Z,96819.63
2023-03-08T16:19:53.353Z,96813.91
2023-03-08T16:22:20.320Z,96813.91
2023-03-08T16:24:46.915Z,96778.50
2023-03-08T16:27:13.393Z,96797.38
2023-03-08T16:29:39.882Z,96792.84
2023-03-08T16:32:07.056Z,96787.56
2023-03-08T16:34:33.566Z,96789.56
2023-03-08T16:37:00.212Z,96789.84
2023-03-08T16:39:26.983Z,96795.06
2023-03-08T16:41:53.474Z,96785.75
2023-03-08T16:44:38.975Z,96778.13
2023-03-08T16:47:06.521Z,96801.97
2023-03-08T16:49:33.082Z,96787.84
2023-03-08T16:51:59.593Z,96796.97
2023-03-08T16:54:26.057Z,96810.91
2023-03-08T16:56:52.542Z,96791.94
2023-03-08T16:59:19.117Z,96785.81
2023-03-08T17:01:47.461Z,96805.38
2023-03-08T17:04:14.365Z,96791.75
2023-03-08T17:06:43.282Z,96818.28
2023-03-08T17:09:11.898Z,96816.00
2023-03-08T17:11:38.954Z,96813.25
2023-03-08T17:14:08.430Z,96813.75
2023-03-08T17:16:36.895Z,96800.88
2023-03-08T17:19:06.160Z,96799.50
2023-03-08T17:21:38.012Z,96811.16
2023-03-08T17:24:07.430Z,96825.38
2023-03-08T17:26:35.192Z,96791.75
2023-03-08T17:29:02.021Z,96812.09
2023-03-08T17:31:28.853Z,96817.81
2023-03-08T17:33:55.431Z,96822.47
2023-03-08T17:36:22.080Z,96818.56
2023-03-08T17:38:48.656Z,96805.78
2023-03-08T17:41:15.761Z,96819.22
2023-03-08T17:43:42.418Z,96812.72
2023-03-08T17:46:21.983Z,96816.63
2023-03-08T17:48:48.699Z,96810.31
2023-03-08T17:51:17.379Z,96815.78
2023-03-08T17:53:45.497Z,96809.56
2023-03-08T17:56:31.959Z,96789.94
2023-03-08T17:59:00.283Z,96820.34
2023-03-08T18:01:29.111Z,96808.81
2023-03-08T18:03:57.599Z,96815.16
2023-03-08T18:06:28.444Z,96826.78
2023-03-08T18:08:56.619Z,96826.28
2023-03-08T18:11:23.736Z,96811.84
2023-03-08T18:13:51.316Z,96818.81
2023-03-08T18:16:19.057Z,96798.63
2023-03-08T18:18:46.031Z,96813.19
2023-03-08T18:21:14.176Z,96810.25
2023-03-08T18:23:42.714Z,96807.13
2023-03-08T18:26:10.409Z,96794.78
2023-03-08T18:28:36.952Z,96822.63
2023-03-08T18:31:12.209Z,96811.03
2023-03-08T18:33:39.293Z,96822.38
2023-03-08T18:36:06.189Z,96811.31
2023-03-08T18:38:33.121Z,96805.28
2023-03-08T18:40:59.774Z,96803.28
2023-03-08T18:43:26.325Z,96823.41
2023-03-08T18:45:54.616Z,96818.69
2023-03-08T18:48:22.676Z,96809.41
2023-03-08T18:50:49.475Z,96805.16
2023-03-08T18:53:16.144Z,96805.91
2023-03-08T18:55:59.778Z,96782.78
2023-03-08T18:58:26.822Z,96811.41
2023-03-08T19:00:56.992Z,96806.84
2023-03-08T19:03:23.572Z,96791.97
2023-03-08T19:05:50.135Z,96774.94
2023-03-08T19:08:16.843Z,96786.22
2023-03-08T19:10:43.280Z,96806.22
2023-03-08T19:13:10.238Z,96810.28
2023-03-08T19:15:38.117Z,96814.25
2023-03-08T19:18:06.123Z,96808.63
2023-03-08T19:20:40.148Z,96801.69
2023-03-08T19:23:08.368Z,96808.00
2023-03-08T19:25:56.091Z,96814.53
2023-03-08T19:28:23.137Z,96812.09
2023-03-08T19:30:49.655Z,96816.25
2023-03-08T19:33:29.631Z,96819.84
2023-03-08T19:35:56.907Z,96810.22
2023-03-08T19:38:23.984Z,96819.19
2023-03-08T19:40:50.518Z,96832.78
2023-03-08T19:43:16.999Z,96823.59
2023-03-08T19:45:48.983Z,96819.34
2023-03-08T19:48:15.718Z,96805.00
2023-03-08T19:50:45.970Z,96810.94
2023-03-08T19:53:12.488Z,96804.16
2023-03-08T19:55:48.323Z,96819.66
2023-03-08T19:58:14.969Z,96812.47
2023-03-08T20:00:44.062Z,96819.06
2023-03-08T20:03:11.522Z,96820.03
2023-03-08T20:05:45.671Z,96818.31
2023-03-08T20:08:13.293Z,96818.50
2023-03-08T20:10:40.054Z,96816.44
2023-03-08T20:13:06.496Z,96824.00
2023-03-08T20:15:33.204Z,96817.97
2023-03-08T20:17:59.895Z,96814.25
2023-03-08T20:20:26.496Z,96818.97
2023-03-08T20:22:52.938Z,96814.25
2023-03-08T20:25:19.444Z,96818.50
2023-03-08T20:27:45.955Z,96808.63
2023-03-08T20:30:13.078Z,96819.75
2023-03-08T20:32:39.726Z,96818.50
2023-03-08T20:35:07.075Z,96824.28
2023-03-08T20:37:33.611Z,96821.53
2023-03-08T20:40:01.280Z,96790.38
2023-03-08T20:42:27.716Z,96809.16
2023-03-08T20:44:54.190Z,96820.22
2023-03-08T20:47:20.813Z,96828.19
2023-03-08T20:49:47.338Z,96831.09
2023-03-08T20:52:13.922Z,96811.38
2023-03-08T20:54:40.610Z,96820.00
2023-03-08T20:57:07.069Z,96812.53
2023-03-08T20:59:33.537Z,96812.97
2023-03-08T21:02:00.114Z,96821.19
2023-03-08T21:04:26.635Z,96805.22
2023-03-08T21:06:53.493Z,96801.75
2023-03-08T21:09:20.932Z,96804.22
2023-03-08T21:11:47.549Z,96795.59
2023-03-08T21:14:14.394Z,96791.56
2023-03-08T21:16:44.159Z,96790.59
2023-03-08T21:19:10.756Z,96804.50
2023-03-08T21:21:42.640Z,96794.19
2023-03-08T21:24:19.503Z,96778.69
2023-03-08T21:26:46.013Z,96782.66
2023-03-08T21:29:15.281Z,96793.16
2023-03-08T21:31:48.451Z,96784.72
2023-03-08T21:34:15.555Z,96784.44
2023-03-08T21:36:42.460Z,96782.63
2023-03-08T21:39:09.627Z,96775.91
2023-03-08T21:41:38.393Z,96763.69
2023-03-08T21:44:09.246Z,96774.66
2023-03-08T21:46:37.207Z,96772.22
2023-03-08T21:49:04.097Z,96767.69
2023-03-08T21:51:30.661Z,96782.31
2023-03-08T21:53:58.050Z,96787.03
2023-03-08T21:56:24.534Z,96746.91
2023-03-08T21:58:51.092Z,96773.31
2023-03-08T22:01:23.919Z,96769.06
2023-03-08T22:03:51.657Z,96765.56
2023-03-08T22:06:18.488Z,96775.78
2023-03-08T22:08:47.746Z,96768.03
2023-03-08T22:11:15.018Z,96752.94
2023-03-08T22:13:41.685Z,96764.25
2023-03-08T22:16:08.780Z,96765.97
2023-03-08T22:18:35.766Z,96738.78
2023-03-08T22:21:02.239Z,96758.00
2023-03-08T22:23:28.762Z,96758.00
2023-03-08T22:25:55.476Z,96740.84
2023-03-08T22:28:21.926Z,96761.25
2023-03-08T22:30:48.558Z,96742.38
2023-03-08T22:33:15.143Z,96759.19
2023-03-08T22:35:47.879Z,96753.59
2023-03-08T22:38:14.524Z,96718.78
2023-03-08T22:40:41.935Z,96748.59
2023-03-08T22:43:08.899Z,96735.16
2023-03-08T22:45:36.077Z,96742.72
2023-03-08T22:48:03.275Z,96741.00
2023-03-08T22:50:29.824Z,96704.38
2023-03-08T22:52:56.313Z,96727.75
2023-03-08T22:55:22.846Z,96730.38
2023-03-08T22:57:49.311Z,96719.41
2023-03-08T23:00:16.236Z,96718.38
2023-03-08T23:02:46.442Z,96727.38
2023-03-08T23:05:17.491Z,96727.56
2023-03-08T23:07:44.073Z,96729.28
2023-03-08T23:10:11.922Z,96706.56
2023-03-08T23:12:38.564Z,96724.00
2023-03-08T23:15:05.969Z,96718.25
2023-03-08T23:17:32.524Z,96710.00
2023-03-08T23:19:59.167Z,96692.53
2023-03-08T23:22:25.904Z,96672.22
2023-03-08T23:24:52.523Z,96688.34
2023-03-08T23:27:19.076Z,96681.78
2023-03-08T23:29:45.584Z,96685.91
2023-03-08T23:32:12.125Z,96674.66
2023-03-08T23:34:38.641Z,96690.81
2023-03-08T23:37:05.221Z,96673.06
2023-03-08T23:39:32.220Z,96674.75
2023-03-08T23:41:58.673Z,96665.53
2023-03-08T23:44:25.221Z,96665.03
2023-03-08T23:46:51.685Z,96661.50
2023-03-08T23:49:18.554Z,96662.97
2023-03-08T23:51:45.707Z,96658.59
2023-03-08T23:54:13.036Z,96659.41
2023-03-08T23:56:40.331Z,96661.41
2023-03-08T23:59:12.121Z,96656.81
